Time;durP1;ratioP1;P1;durP2;ratioP2;P2;SDS_P1;SDS_P2;PMS_P1;PMS_P2;Temp;Humidity;BMP_temperature;BMP_pressure;BME280_temperature;BME280_humidity;BME280_pressure;Samples;Min_cycle;Max_cycle;Signal;HPM_P1;HPM_P2
2022/01/22 00:02:24;;;;;;;11.73;6.50;;;5.90;99.90;;;;;;5118655;28;20662;-88
2022/01/22 00:04:53;;;;;;;7.97;6.17;;;6.10;99.90;;;;;;5120279;28;20197;-90
2022/01/22 00:07:21;;;;;;;11.75;7.82;;;6.20;99.90;;;;;;5118258;28;20871;-89
2022/01/22 00:09:59;;;;;;;12.60;7.50;;;6.30;99.90;;;;;;5120633;28;20207;-91
2022/01/22 00:12:43;;;;;;;9.63;6.63;;;6.40;99.90;;;;;;5119579;28;20200;-88
2022/01/22 00:15:17;;;;;;;12.30;7.03;;;6.40;99.90;;;;;;5120056;28;20723;-89
2022/01/22 00:17:46;;;;;;;10.23;6.90;;;6.30;99.90;;;;;;5117987;28;20192;-90
2022/01/22 00:20:29;;;;;;;9.67;6.93;;;6.20;99.90;;;;;;5118340;28;20200;-91
2022/01/22 00:23:00;;;;;;;10.63;7.33;;;6.20;99.90;;;;;;5099274;28;20248;-89
2022/01/22 00:25:37;;;;;;;11.90;8.03;;;6.20;99.90;;;;;;5100652;28;20205;-90
2022/01/22 00:28:04;;;;;;;11.87;7.40;;;6.20;99.90;;;;;;5097656;28;20228;-90
2022/01/22 00:30:44;;;;;;;12.23;7.63;;;6.30;99.90;;;;;;5098316;28;20229;-92
2022/01/22 00:33:11;;;;;;;10.93;7.50;;;6.20;99.90;;;;;;5095707;28;20196;-91
2022/01/22 00:35:41;;;;;;;9.30;7.37;;;6.00;99.90;;;;;;5096614;28;20197;-89
2022/01/22 00:38:09;;;;;;;12.27;8.20;;;6.00;99.90;;;;;;5095843;28;20209;-91
2022/01/22 00:40:49;;;;;;;10.77;8.13;;;6.00;99.90;;;;;;5096378;28;20213;-90
2022/01/22 00:43:22;;;;;;;9.73;7.83;;;6.00;99.90;;;;;;5097076;28;20193;-90
2022/01/22 00:45:52;;;;;;;14.07;9.23;;;5.90;99.90;;;;;;5096256;28;20209;-90
2022/01/22 00:48:25;;;;;;;12.97;7.90;;;5.90;99.90;;;;;;5096402;28;20225;-89
2022/01/22 00:50:59;;;;;;;8.70;7.80;;;6.10;99.90;;;;;;5096311;28;20196;-91
2022/01/22 00:53:27;;;;;;;15.23;8.60;;;6.10;99.90;;;;;;5096406;28;20200;-90
2022/01/22 00:55:58;;;;;;;13.03;9.07;;;6.00;99.90;;;;;;5097053;28;20224;-90
2022/01/22 00:58:28;;;;;;;13.57;9.10;;;5.90;99.90;;;;;;5097509;28;20201;-91
2022/01/22 01:01:03;;;;;;;10.53;8.60;;;5.80;99.90;;;;;;5096129;28;20198;-90
2022/01/22 01:03:36;;;;;;;13.43;8.93;;;5.80;99.90;;;;;;5096381;28;20205;-87
2022/01/22 01:06:06;;;;;;;12.47;8.83;;;5.80;99.90;;;;;;5096274;28;20189;-90
2022/01/22 01:08:38;;;;;;;11.03;9.17;;;5.70;99.90;;;;;;5096145;28;20220;-90
2022/01/22 01:11:07;;;;;;;12.93;9.07;;;5.80;99.90;;;;;;5097541;28;20679;-89
2022/01/22 01:13:41;;;;;;;13.97;9.33;;;5.70;99.90;;;;;;5098996;28;20303;-93
2022/01/22 01:16:21;;;;;;;12.63;9.03;;;5.70;99.90;;;;;;5099373;28;20204;-88
2022/01/22 01:33:02;;;;;;;13.57;9.60;;;5.70;99.90;;;;;;5069279;28;20303;-90
2022/01/22 01:35:31;;;;;;;13.23;10.20;;;5.70;99.90;;;;;;5101000;28;20201;-89
2022/01/22 01:38:02;;;;;;;16.03;9.60;;;5.80;99.90;;;;;;5101176;28;20231;-88
2022/01/22 01:40:32;;;;;;;13.20;10.00;;;5.80;99.90;;;;;;5108556;28;20201;-87
2022/01/22 01:43:07;;;;;;;16.50;10.57;;;5.80;99.90;;;;;;5112821;28;20209;-88
2022/01/22 01:45:36;;;;;;;15.27;9.97;;;5.80;99.90;;;;;;5110259;28;20246;-88
2022/01/22 01:48:10;;;;;;;13.88;10.60;;;5.80;99.90;;;;;;5112408;28;20448;-89
2022/01/22 01:50:40;;;;;;;13.80;10.60;;;5.80;99.90;;;;;;5110049;28;20205;-88
2022/01/22 01:53:13;;;;;;;13.73;10.17;;;5.90;99.90;;;;;;5106502;28;20304;-89
2022/01/22 01:56:02;;;;;;;15.43;10.60;;;5.90;99.90;;;;;;5098228;28;20577;-88
2022/01/22 01:58:49;;;;;;;14.50;10.40;;;6.00;99.90;;;;;;5095251;28;20189;-88
2022/01/22 02:01:18;;;;;;;16.43;10.50;;;6.00;99.90;;;;;;5095579;28;20658;-89
2022/01/22 02:04:26;;;;;;;19.83;11.23;;;5.90;99.90;;;;;;5094597;28;20208;-87
2022/01/22 02:06:56;;;;;;;16.67;10.57;;;5.90;99.90;;;;;;5094794;28;20293;-89
2022/01/22 02:09:26;;;;;;;12.40;10.10;;;5.90;99.90;;;;;;5094782;28;20221;-88
2022/01/22 02:12:06;;;;;;;19.00;10.60;;;5.90;99.90;;;;;;5094389;28;20201;-90
2022/01/22 02:23:35;;;;;;;14.97;12.63;;;5.90;99.90;;;;;;5052031;28;20422;-90
2022/01/22 02:26:02;;;;;;;14.00;12.23;;;6.00;99.90;;;;;;5090813;28;20258;-90
2022/01/22 02:28:29;;;;;;;16.67;12.47;;;6.10;99.90;;;;;;5094452;28;20227;-88
2022/01/22 02:31:07;;;;;;;13.83;12.40;;;5.90;99.90;;;;;;5094192;28;20221;-89
2022/01/22 02:33:50;;;;;;;18.80;13.80;;;5.90;99.90;;;;;;5093795;28;20236;-91
2022/01/22 02:36:22;;;;;;;18.93;11.93;;;5.90;99.90;;;;;;5094470;28;20205;-91
2022/01/22 02:39:04;;;;;;;17.87;12.60;;;5.90;99.90;;;;;;5094648;28;20219;-87
2022/01/22 02:41:35;;;;;;;19.83;12.67;;;5.90;99.90;;;;;;5094696;28;20209;-87
2022/01/22 02:44:14;;;;;;;18.07;12.93;;;5.90;99.90;;;;;;5093898;28;20234;-89
2022/01/22 02:46:45;;;;;;;15.07;11.97;;;6.00;99.90;;;;;;5093593;28;20189;-88
2022/01/22 02:49:20;;;;;;;16.97;13.40;;;5.90;99.90;;;;;;5093763;28;20678;-88
2022/01/22 02:51:47;;;;;;;16.97;13.17;;;6.00;99.90;;;;;;5093986;28;20205;-90
2022/01/22 02:54:18;;;;;;;19.50;13.67;;;6.00;99.90;;;;;;5093812;28;20220;-91
2022/01/22 02:56:48;;;;;;;30.87;14.60;;;6.00;99.90;;;;;;5094031;28;20304;-90
2022/01/22 02:59:23;;;;;;;21.33;17.60;;;5.90;99.90;;;;;;5092452;28;20444;-89
2022/01/22 03:01:53;;;;;;;21.90;15.10;;;6.00;99.90;;;;;;5092668;28;20725;-90
2022/01/22 03:04:26;;;;;;;21.77;15.57;;;6.00;99.90;;;;;;5094077;28;20201;-89
2022/01/22 03:07:01;;;;;;;18.73;14.43;;;6.00;99.90;;;;;;5093647;28;20216;-90
2022/01/22 03:09:41;;;;;;;23.70;14.83;;;6.00;99.90;;;;;;5092957;28;20229;-90
2022/01/22 03:12:46;;;;;;;21.27;15.03;;;6.00;99.90;;;;;;5097947;28;20637;-88
2022/01/22 03:18:11;;;;;;;26.17;16.17;;;6.10;99.90;;;;;;5097371;28;20311;-90
2022/01/22 03:21:05;;;;;;;22.67;15.30;;;6.10;99.90;;;;;;5097247;28;20254;-89
2022/01/22 03:29:10;;;;;;;21.10;16.50;;;6.10;99.90;;;;;;5096770;28;20323;-89
2022/01/22 03:35:10;;;;;;;24.53;16.43;;;6.00;99.90;;;;;;5097068;28;20607;-90
2022/01/22 03:37:41;;;;;;;25.20;16.77;;;6.00;99.90;;;;;;5096824;28;20251;-90
2022/01/22 03:40:09;;;;;;;23.37;17.10;;;6.00;99.90;;;;;;5097179;28;20205;-90
2022/01/22 03:42:39;;;;;;;26.33;17.47;;;6.00;99.90;;;;;;5097239;28;20208;-89
2022/01/22 03:45:21;;;;;;;23.23;17.17;;;5.90;99.90;;;;;;5095467;28;20205;-90
2022/01/22 03:47:50;;;;;;;28.47;17.87;;;5.90;99.90;;;;;;5097014;28;20254;-92
2022/01/22 03:50:21;;;;;;;25.97;18.40;;;5.90;99.90;;;;;;5097103;28;20212;-89
2022/01/22 03:52:48;;;;;;;26.43;18.30;;;5.90;99.90;;;;;;5096676;28;20694;-91
2022/01/22 03:55:32;;;;;;;23.47;17.83;;;6.00;99.90;;;;;;5096764;28;20636;-91
2022/01/22 03:58:04;;;;;;;27.23;17.57;;;6.10;99.90;;;;;;5095370;28;20306;-88
2022/01/22 04:00:33;;;;;;;25.43;17.47;;;6.20;99.90;;;;;;5096435;28;20209;-88
2022/01/22 04:06:20;;;;;;;27.87;19.10;;;6.20;99.90;;;;;;5053916;28;20599;-88
2022/01/22 04:08:54;;;;;;;22.90;18.07;;;6.20;99.90;;;;;;5073883;28;20320;-88
2022/01/22 04:11:21;;;;;;;26.10;18.53;;;6.30;99.90;;;;;;5076102;28;20205;-88
2022/01/22 04:13:52;;;;;;;22.10;17.40;;;6.30;99.90;;;;;;5075588;28;20202;-88
2022/01/22 04:16:21;;;;;;;26.80;18.30;;;6.30;99.90;;;;;;5076167;28;20206;-91
2022/01/22 04:27:11;;;;;;;26.47;18.10;;;6.20;99.90;;;;;;5095840;28;20200;-88
2022/01/22 04:29:45;;;;;;;29.77;19.37;;;6.20;99.90;;;;;;5096063;28;20649;-90
2022/01/22 04:32:18;;;;;;;26.93;18.27;;;6.20;99.90;;;;;;5096126;28;20569;-89
2022/01/22 04:34:48;;;;;;;29.43;18.67;;;6.20;99.90;;;;;;5095074;28;20269;-89
2022/01/22 04:37:21;;;;;;;24.30;18.33;;;6.30;99.90;;;;;;5096036;28;20291;-89
2022/01/22 04:39:54;;;;;;;27.77;19.17;;;6.30;99.90;;;;;;5095847;28;20717;-90
2022/01/22 04:42:32;;;;;;;26.00;18.13;;;6.30;99.90;;;;;;5095370;28;20205;-89
2022/01/22 04:45:16;;;;;;;29.50;23.73;;;6.20;99.90;;;;;;5095152;28;20471;-88
2022/01/22 04:47:53;;;;;;;31.13;20.17;;;6.20;99.90;;;;;;5096072;28;20209;-89
2022/01/22 04:55:54;;;;;;;26.67;20.27;;;6.30;99.90;;;;;;5095596;28;20248;-90
2022/01/22 04:58:26;;;;;;;29.77;20.23;;;6.10;99.90;;;;;;5095234;28;20220;-90
2022/01/22 05:01:00;;;;;;;26.43;19.07;;;6.10;99.90;;;;;;5095469;28;20213;-89
2022/01/22 05:03:33;;;;;;;29.07;20.57;;;6.10;99.90;;;;;;5095633;28;20190;-91
2022/01/22 05:06:06;;;;;;;29.33;20.40;;;6.10;99.90;;;;;;5095431;28;20254;-88
2022/01/22 05:08:39;;;;;;;27.27;19.57;;;6.10;99.90;;;;;;5095434;28;20698;-91
2022/01/22 05:11:07;;;;;;;27.70;20.90;;;6.20;99.90;;;;;;5095192;28;20220;-90
2022/01/22 05:14:15;;;;;;;27.73;21.13;;;6.20;99.90;;;;;;5095377;28;20207;-90
2022/01/22 05:16:45;;;;;;;30.97;19.70;;;6.20;99.90;;;;;;5095572;28;20213;-89
2022/01/22 05:19:17;;;;;;;27.70;19.97;;;6.40;99.90;;;;;;5095560;28;20199;-89
2022/01/22 05:21:49;;;;;;;30.70;26.33;;;6.20;99.90;;;;;;5094245;28;20521;-91
2022/01/22 05:24:26;;;;;;;32.07;22.00;;;6.30;99.90;;;;;;5095286;28;20532;-91
2022/01/22 05:30:06;;;;;;;31.20;21.07;;;6.40;99.90;;;;;;5153481;27;20550;-91
2022/01/22 05:32:48;;;;;;;38.20;21.00;;;6.40;99.90;;;;;;5153481;27;20255;-91
2022/01/22 05:38:33;;;;;;;27.47;21.30;;;6.30;99.90;;;;;;5152837;27;20240;-91
2022/01/22 05:41:02;;;;;;;28.67;21.20;;;6.20;99.90;;;;;;5152747;27;20207;-90
2022/01/22 05:43:30;;;;;;;30.00;20.90;;;6.30;99.90;;;;;;5153107;27;20195;-92
2022/01/22 05:46:00;;;;;;;35.93;21.90;;;6.30;99.90;;;;;;5152778;27;20200;-89
2022/01/22 05:48:30;;;;;;;29.97;21.17;;;6.40;99.90;;;;;;5152660;27;20229;-92
2022/01/22 05:51:05;;;;;;;28.23;20.67;;;6.30;99.90;;;;;;5153165;27;20202;-89
2022/01/22 05:53:47;;;;;;;31.93;21.63;;;6.30;99.90;;;;;;5153275;27;20623;-90
2022/01/22 06:01:57;;;;;;;30.07;20.83;;;6.40;99.90;;;;;;5139312;27;20292;-90
2022/01/22 06:04:30;;;;;;;31.60;21.37;;;6.40;99.90;;;;;;5132273;27;20199;-91
2022/01/22 06:06:56;;;;;;;30.03;20.00;;;6.40;99.90;;;;;;5132235;27;20210;-91
2022/01/22 06:09:27;;;;;;;31.20;20.20;;;6.40;99.90;;;;;;5131653;27;20223;-90
2022/01/22 06:12:03;;;;;;;27.40;20.87;;;6.40;99.90;;;;;;5131686;27;20199;-89
2022/01/22 06:14:33;;;;;;;31.87;21.37;;;6.40;99.90;;;;;;5132275;27;20223;-89
2022/01/22 06:17:07;;;;;;;34.90;20.07;;;6.50;99.90;;;;;;5132224;27;20214;-88
2022/01/22 06:19:35;;;;;;;29.03;19.63;;;6.50;99.90;;;;;;5131902;27;20480;-90
2022/01/22 06:22:08;;;;;;;30.40;19.77;;;6.50;99.90;;;;;;5131980;27;20204;-90
2022/01/22 06:24:40;;;;;;;25.23;20.03;;;6.50;99.90;;;;;;5131667;27;20653;-90
2022/01/22 06:27:13;;;;;;;27.13;20.07;;;6.50;99.90;;;;;;5131714;27;20204;-91
2022/01/22 06:29:46;;;;;;;27.97;19.20;;;6.50;99.90;;;;;;5131270;27;20698;-89
2022/01/22 06:32:15;;;;;;;32.28;23.42;;;6.50;99.90;;;;;;5131018;27;20439;-89
2022/01/22 06:34:42;;;;;;;27.80;21.00;;;6.50;99.90;;;;;;5131710;27;20210;-88
2022/01/22 06:37:33;;;;;;;33.30;20.90;;;6.50;99.90;;;;;;5131172;27;20208;-91
2022/01/22 06:42:53;;;;;;;27.80;20.13;;;6.40;99.90;;;;;;5118028;28;20288;-89
2022/01/22 06:45:19;;;;;;;27.53;19.03;;;6.50;99.90;;;;;;5117914;27;20201;-90
2022/01/22 06:47:51;;;;;;;29.63;19.90;;;6.40;99.90;;;;;;5117632;27;20197;-91
2022/01/22 06:50:23;;;;;;;32.90;20.83;;;6.50;99.90;;;;;;5117931;27;20211;-90
2022/01/22 06:52:56;;;;;;;29.47;20.47;;;6.40;99.90;;;;;;5117242;28;20603;-90
2022/01/22 06:55:37;;;;;;;30.60;20.67;;;6.40;99.90;;;;;;5117253;28;20200;-92
2022/01/22 06:58:04;;;;;;;31.77;20.60;;;6.40;99.90;;;;;;5117742;28;20298;-91
2022/01/22 07:00:33;;;;;;;31.83;20.23;;;6.50;99.90;;;;;;5117074;27;20207;-89
2022/01/22 07:03:07;;;;;;;28.07;20.90;;;6.40;99.90;;;;;;5117046;27;20200;-91
2022/01/22 07:05:39;;;;;;;34.13;20.63;;;6.40;99.90;;;;;;5116792;27;20211;-90
2022/01/22 07:08:16;;;;;;;26.73;19.87;;;6.40;99.90;;;;;;5117058;28;20196;-92
2022/01/22 07:10:46;;;;;;;27.43;19.67;;;6.50;99.90;;;;;;5117397;27;20204;-88
2022/01/22 07:13:16;;;;;;;29.47;20.07;;;6.50;99.90;;;;;;5117064;27;20201;-84
2022/01/22 07:15:50;;;;;;;29.73;19.90;;;6.50;99.90;;;;;;5117140;28;20268;-88
2022/01/22 07:18:19;;;;;;;28.47;19.53;;;6.40;99.90;;;;;;5117346;28;20207;-90
2022/01/22 07:20:52;;;;;;;29.73;19.93;;;6.40;99.90;;;;;;5116635;28;20209;-81
2022/01/22 07:23:32;;;;;;;30.40;19.97;;;6.40;99.90;;;;;;5116738;28;20616;-85
2022/01/22 07:26:05;;;;;;;24.83;19.03;;;6.40;99.90;;;;;;5117299;28;20192;-87
2022/01/22 07:28:39;;;;;;;29.80;20.67;;;6.50;99.90;;;;;;5116675;27;20228;-87
2022/01/22 07:31:07;;;;;;;28.97;20.20;;;6.50;99.90;;;;;;5116506;27;20223;-85
2022/01/22 07:33:36;;;;;;;26.27;20.33;;;6.50;99.90;;;;;;5116448;27;20207;-89
2022/01/22 07:36:09;;;;;;;32.13;20.57;;;6.50;99.90;;;;;;5116647;27;20207;-87
2022/01/22 07:38:38;;;;;;;29.27;20.37;;;6.40;99.90;;;;;;5117087;27;20204;-91
2022/01/22 07:41:12;;;;;;;28.90;19.80;;;6.50;99.90;;;;;;5117030;28;20670;-87
2022/01/22 07:43:42;;;;;;;33.23;21.10;;;6.50;99.90;;;;;;5117426;28;20253;-87
2022/01/22 07:46:12;;;;;;;33.63;26.75;;;6.50;99.90;;;;;;5115787;28;20409;-92
2022/01/22 07:48:48;;;;;;;29.80;22.90;;;6.60;99.90;;;;;;5117008;28;20228;-89
2022/01/22 07:51:18;;;;;;;29.00;21.20;;;6.60;99.90;;;;;;5114886;28;20257;-87
2022/01/22 07:53:45;;;;;;;27.77;20.67;;;6.60;99.90;;;;;;5116499;27;20204;-90
2022/01/22 07:56:18;;;;;;;32.93;20.67;;;6.70;99.90;;;;;;5116683;27;20571;-91
2022/01/22 07:58:51;;;;;;;31.90;20.97;;;6.60;99.90;;;;;;5116034;27;20628;-91
2022/01/22 08:01:24;;;;;;;32.83;21.47;;;6.70;99.90;;;;;;5116164;28;20250;-90
2022/01/22 08:03:58;;;;;;;28.17;20.97;;;6.70;99.90;;;;;;5117294;28;20240;-88
2022/01/22 08:06:28;;;;;;;36.27;22.20;;;6.80;99.90;;;;;;5118482;27;20204;-89
2022/01/22 08:09:01;;;;;;;31.83;21.50;;;6.80;99.90;;;;;;5118420;27;20594;-88
2022/01/22 08:11:30;;;;;;;26.13;20.73;;;6.80;99.90;;;;;;5115969;27;20201;-91
2022/01/22 08:14:00;;;;;;;27.93;19.90;;;6.80;99.90;;;;;;5115984;27;20210;-91
2022/01/22 08:16:46;;;;;;;30.53;20.77;;;6.80;99.90;;;;;;5116576;27;20203;-89
2022/01/22 08:19:21;;;;;;;30.57;20.10;;;6.70;99.90;;;;;;5121034;27;20288;-89
2022/01/22 08:21:54;;;;;;;28.75;24.48;;;6.60;99.90;;;;;;5116056;27;20421;-90
2022/01/22 08:24:25;;;;;;;30.67;22.03;;;6.70;99.90;;;;;;5136159;27;20195;-88
2022/01/22 08:27:08;;;;;;;28.47;20.10;;;6.60;99.90;;;;;;5134793;27;20200;-91
2022/01/22 08:29:35;;;;;;;29.13;21.17;;;6.60;99.90;;;;;;5135665;27;20743;-91
2022/01/22 08:32:24;;;;;;;32.53;20.97;;;6.50;99.90;;;;;;5136738;27;20534;-90
2022/01/22 08:37:44;;;;;;;29.13;21.30;;;6.60;99.90;;;;;;5115606;28;20269;-87
2022/01/22 08:40:24;;;;;;;26.30;20.10;;;6.70;99.90;;;;;;5115306;28;20223;-91
2022/01/22 08:42:52;;;;;;;28.87;20.43;;;6.70;99.90;;;;;;5115303;27;20660;-88
2022/01/22 08:45:22;;;;;;;25.80;20.60;;;6.90;99.90;;;;;;5115074;28;20842;-87
2022/01/22 08:47:49;;;;;;;31.10;20.83;;;6.90;99.90;;;;;;5114977;28;20200;-90
2022/01/22 08:50:17;;;;;;;32.37;20.93;;;6.90;99.90;;;;;;5115507;27;20243;-87
2022/01/22 08:52:47;;;;;;;29.43;20.50;;;6.90;99.90;;;;;;5115716;27;20211;-87
2022/01/22 08:55:17;;;;;;;29.23;20.20;;;7.00;99.90;;;;;;5116009;28;20285;-87
2022/01/22 08:57:49;;;;;;;28.13;24.20;;;7.10;99.90;;;;;;5115095;28;20424;-87
2022/01/22 09:00:22;;;;;;;25.87;21.50;;;7.00;99.90;;;;;;5114694;28;20291;-89
2022/01/22 09:02:50;;;;;;;26.13;20.70;;;7.00;99.90;;;;;;5115493;27;20207;-89
2022/01/22 09:05:20;;;;;;;25.60;19.80;;;7.00;99.90;;;;;;5115726;27;20216;-87
2022/01/22 09:07:48;;;;;;;32.33;20.07;;;6.90;99.90;;;;;;5115549;28;20236;-87
2022/01/22 09:10:17;;;;;;;28.37;20.57;;;6.90;99.90;;;;;;5115873;28;20227;-90
2022/01/22 09:12:58;;;;;;;31.67;21.77;;;7.00;99.90;;;;;;5122637;28;20276;-92
2022/01/22 09:15:26;;;;;;;29.27;20.03;;;6.80;99.90;;;;;;5124991;27;20208;-91
2022/01/22 09:17:53;;;;;;;27.10;21.60;;;6.90;99.90;;;;;;5136551;27;20660;-89
2022/01/22 09:20:42;;;;;;;27.40;21.10;;;6.80;99.90;;;;;;5137729;27;20271;-90
2022/01/22 09:23:11;;;;;;;30.77;20.47;;;6.70;99.90;;;;;;5138062;27;20192;-93
2022/01/22 09:25:41;;;;;;;29.27;21.53;;;6.80;99.90;;;;;;5137774;27;20272;-93
2022/01/22 09:28:12;;;;;;;29.37;21.37;;;6.70;99.90;;;;;;5131061;27;20262;-92
2022/01/22 09:30:44;;;;;;;28.63;21.70;;;6.70;99.90;;;;;;5123652;27;20612;-91
2022/01/22 09:33:20;;;;;;;28.35;22.88;;;6.70;99.90;;;;;;5124769;28;20519;-90
2022/01/22 09:36:04;;;;;;;32.43;21.63;;;6.80;99.90;;;;;;5122179;28;20207;-92
2022/01/22 09:38:39;;;;;;;31.93;21.60;;;6.80;99.90;;;;;;5122012;27;20662;-91
2022/01/22 09:41:07;;;;;;;30.60;21.90;;;6.90;99.90;;;;;;5123182;27;20207;-90
2022/01/22 09:43:40;;;;;;;29.90;21.17;;;6.90;99.90;;;;;;5122589;28;20658;-92
2022/01/22 09:46:10;;;;;;;24.60;20.47;;;7.00;99.90;;;;;;5124477;28;20237;-90
2022/01/22 09:48:41;;;;;;;31.13;21.33;;;7.10;99.90;;;;;;5122971;28;20203;-92
2022/01/22 09:51:13;;;;;;;28.60;20.77;;;7.20;99.90;;;;;;5134634;28;20200;-90
2022/01/22 09:53:42;;;;;;;27.77;21.23;;;7.10;99.90;;;;;;5123484;27;20211;-90
2022/01/22 09:56:09;;;;;;;28.97;21.77;;;7.10;99.90;;;;;;5120768;27;20223;-91
2022/01/22 09:58:46;;;;;;;27.60;20.70;;;7.10;99.90;;;;;;5120350;28;20201;-90
2022/01/22 10:01:21;;;;;;;25.10;20.43;;;7.20;99.90;;;;;;5120152;28;20184;-91
2022/01/22 10:03:58;;;;;;;26.33;20.27;;;7.10;99.90;;;;;;5119747;28;20222;-91
2022/01/22 10:06:33;;;;;;;25.90;20.23;;;7.20;99.90;;;;;;5117732;27;20295;-90
2022/01/22 10:09:11;;;;;;;28.33;21.23;;;7.10;99.90;;;;;;5115726;27;20227;-91
2022/01/22 10:11:41;;;;;;;29.97;21.70;;;7.10;99.90;;;;;;5115710;27;20196;-84
2022/01/22 10:14:12;;;;;;;26.80;20.77;;;7.20;99.90;;;;;;5114671;28;20205;-92
2022/01/22 10:16:40;;;;;;;28.50;21.47;;;7.20;99.90;;;;;;5119115;28;20204;-92
2022/01/22 10:19:16;;;;;;;30.10;22.30;;;7.30;99.90;;;;;;5119597;27;20295;-92
2022/01/22 10:21:56;;;;;;;28.70;22.67;;;7.40;99.90;;;;;;5118594;28;20207;-90
2022/01/22 10:24:36;;;;;;;27.30;21.20;;;7.20;99.90;;;;;;5117122;28;20204;-93
2022/01/22 10:27:25;;;;;;;27.70;21.87;;;7.30;99.90;;;;;;5118888;28;20237;-91
2022/01/22 10:29:55;;;;;;;29.87;21.00;;;7.30;99.90;;;;;;5118495;27;20300;-91
2022/01/22 10:32:36;;;;;;;28.00;20.50;;;7.20;99.90;;;;;;5118413;28;20196;-93
2022/01/22 10:35:06;;;;;;;25.00;20.07;;;7.10;99.90;;;;;;5118393;28;20208;-89
2022/01/22 10:37:40;;;;;;;25.63;20.93;;;7.20;99.90;;;;;;5118608;27;20197;-92
2022/01/22 10:40:27;;;;;;;26.63;20.70;;;7.10;99.90;;;;;;5118873;27;20219;-91
2022/01/22 10:43:20;;;;;;;24.83;19.80;;;7.30;99.90;;;;;;5118475;28;20235;-90
2022/01/22 10:46:11;;;;;;;26.20;20.55;;;7.30;99.90;;;;;;5117934;27;20420;-91
2022/01/22 10:48:55;;;;;;;28.53;21.10;;;7.20;99.90;;;;;;5118659;28;20256;-91
2022/01/22 10:51:26;;;;;;;25.93;21.33;;;7.30;99.90;;;;;;5118394;28;20255;-90
2022/01/22 10:53:59;;;;;;;26.70;21.03;;;7.30;99.90;;;;;;5118364;27;20204;-90
2022/01/22 10:56:30;;;;;;;27.77;21.03;;;7.30;99.90;;;;;;5118187;28;20246;-90
2022/01/22 10:59:02;;;;;;;30.07;21.57;;;7.20;99.90;;;;;;5118869;27;20200;-90
2022/01/22 11:01:47;;;;;;;29.37;21.93;;;7.30;99.90;;;;;;5118516;27;20772;-89
2022/01/22 11:04:22;;;;;;;28.93;22.27;;;7.30;99.90;;;;;;5118985;27;20235;-89
2022/01/22 11:06:57;;;;;;;31.43;22.60;;;7.30;99.90;;;;;;5118590;27;20204;-90
2022/01/22 11:09:32;;;;;;;30.40;21.83;;;7.50;99.90;;;;;;5117826;27;20223;-91
2022/01/22 11:12:01;;;;;;;31.30;22.23;;;7.60;99.90;;;;;;5118500;27;20327;-90
2022/01/22 11:14:33;;;;;;;28.63;21.60;;;7.50;99.90;;;;;;5117291;28;20683;-88
2022/01/22 11:17:01;;;;;;;29.03;22.07;;;7.40;99.90;;;;;;5117575;27;20192;-90
2022/01/22 11:19:33;;;;;;;27.23;21.43;;;7.40;99.90;;;;;;5118542;27;20201;-89
2022/01/22 11:22:05;;;;;;;29.60;21.77;;;7.20;99.90;;;;;;5118111;27;20203;-90
2022/01/22 11:24:40;;;;;;;31.10;21.60;;;7.40;99.90;;;;;;5117441;28;20188;-91
2022/01/22 11:27:10;;;;;;;28.50;22.70;;;7.30;99.90;;;;;;5121704;27;20201;-90
2022/01/22 11:29:40;;;;;;;29.37;21.00;;;7.40;99.90;;;;;;5125433;27;20709;-89
2022/01/22 11:32:13;;;;;;;27.00;20.43;;;7.40;99.90;;;;;;5127771;27;20216;-89
2022/01/22 11:34:43;;;;;;;24.90;19.83;;;7.20;99.90;;;;;;5140058;27;20663;-89
2022/01/22 11:37:16;;;;;;;24.03;19.93;;;7.10;99.90;;;;;;5143629;27;20203;-91
2022/01/22 11:39:45;;;;;;;23.90;19.73;;;7.00;99.90;;;;;;5142483;27;20203;-91
2022/01/22 11:42:14;;;;;;;27.47;20.40;;;7.00;99.90;;;;;;5134671;27;20216;-89
2022/01/22 11:44:49;;;;;;;23.40;19.53;;;7.00;99.90;;;;;;5122414;27;20212;-91
2022/01/22 11:47:17;;;;;;;22.63;18.83;;;7.10;99.90;;;;;;5117873;28;20307;-90
2022/01/22 11:50:06;;;;;;;24.63;18.07;;;7.10;99.90;;;;;;5117774;28;20275;-91
2022/01/22 11:52:37;;;;;;;26.03;18.67;;;7.10;99.90;;;;;;5121361;27;20202;-89
2022/01/22 11:55:13;;;;;;;23.65;21.17;;;7.00;99.90;;;;;;5132758;27;20431;-90
2022/01/22 11:57:44;;;;;;;23.63;19.20;;;7.00;99.90;;;;;;5116176;27;20753;-90
2022/01/22 12:00:21;;;;;;;28.37;19.93;;;7.00;99.90;;;;;;5116135;27;20197;-89
2022/01/22 12:03:18;;;;;;;22.43;17.80;;;7.10;99.90;;;;;;5116659;27;20211;-90
2022/01/22 12:06:10;;;;;;;23.17;18.60;;;7.10;99.90;;;;;;5116480;28;20276;-89
2022/01/22 12:09:11;;;;;;;24.47;18.40;;;7.10;99.90;;;;;;5108141;27;20204;-89
2022/01/22 12:14:53;;;;;;;24.33;19.67;;;7.10;99.90;;;;;;5130825;27;20186;-88
2022/01/22 12:18:04;;;;;;;26.83;20.23;;;7.10;99.90;;;;;;5134264;27;20225;-90
2022/01/22 12:24:15;;;;;;;23.27;19.30;;;7.20;99.90;;;;;;5116828;28;20215;-91
2022/01/22 12:27:01;;;;;;;26.53;19.43;;;7.20;99.90;;;;;;5132234;27;20196;-88
2022/01/22 12:29:40;;;;;;;25.80;20.30;;;7.20;99.90;;;;;;5136534;27;20241;-91
2022/01/22 12:32:10;;;;;;;25.20;19.90;;;7.20;99.90;;;;;;5136298;27;20211;-87
2022/01/22 12:34:57;;;;;;;24.50;21.00;;;7.20;99.90;;;;;;5136287;27;20673;-89
2022/01/22 12:37:30;;;;;;;28.17;21.80;;;6.90;99.90;;;;;;5136620;27;20290;-93
2022/01/22 12:40:09;;;;;;;29.80;21.00;;;7.00;99.90;;;;;;5136357;27;20631;-88
2022/01/22 12:43:27;;;;;;;25.17;22.20;;;7.10;99.90;;;;;;5137570;27;20203;-86
2022/01/22 12:46:02;;;;;;;29.20;21.90;;;7.10;99.90;;;;;;5136899;27;20203;-89
2022/01/22 12:48:38;;;;;;;29.63;23.20;;;7.10;99.90;;;;;;5133449;27;20188;-92
2022/01/22 12:51:09;;;;;;;26.43;22.33;;;7.20;99.90;;;;;;5125770;27;20575;-90
2022/01/22 12:53:38;;;;;;;32.97;28.30;;;7.20;99.90;;;;;;5131144;27;20441;-92
2022/01/22 12:56:47;;;;;;;30.13;25.10;;;7.20;99.90;;;;;;5139873;27;20231;-90
2022/01/22 12:59:07;;;;;;;27.20;23.00;;;7.30;99.90;;;;;;5131785;27;20223;-90
2022/01/22 13:01:35;;;;;;;27.37;22.47;;;7.10;99.90;;;;;;5133113;27;20189;-90
2022/01/22 13:04:06;;;;;;;27.13;21.73;;;7.20;99.90;;;;;;5123582;27;20195;-88
2022/01/22 13:06:39;;;;;;;27.43;21.00;;;7.10;99.90;;;;;;5138988;27;20197;-88
2022/01/22 13:09:11;;;;;;;25.83;21.20;;;7.20;99.90;;;;;;5131072;27;20223;-85
2022/01/22 13:11:45;;;;;;;25.67;19.97;;;7.00;99.90;;;;;;5124382;27;20269;-90
2022/01/22 13:14:17;;;;;;;30.47;21.10;;;7.20;99.90;;;;;;5115573;28;20188;-90
2022/01/22 13:16:49;;;;;;;29.27;20.67;;;7.00;99.90;;;;;;5116405;27;20268;-87
2022/01/22 13:19:23;;;;;;;26.43;21.43;;;6.90;99.90;;;;;;5118686;28;20204;-89
2022/01/22 13:21:55;;;;;;;26.10;20.27;;;6.90;99.90;;;;;;5116853;28;20212;-90
2022/01/22 13:24:25;;;;;;;23.90;19.80;;;6.90;99.90;;;;;;5116463;28;20275;-91
2022/01/22 13:27:00;;;;;;;24.57;21.37;;;6.80;99.90;;;;;;5115994;27;20268;-90
2022/01/22 13:29:36;;;;;;;27.27;20.73;;;6.90;99.90;;;;;;5128741;28;20313;-82
2022/01/22 13:32:18;;;;;;;31.63;22.23;;;6.90;99.90;;;;;;5136276;27;20235;-91
2022/01/22 13:35:11;;;;;;;31.70;22.80;;;6.90;99.90;;;;;;5123498;27;20199;-90
2022/01/22 13:45:04;;;;;;;25.30;21.40;;;6.90;99.90;;;;;;5115442;28;20399;-89
2022/01/22 13:49:34;;;;;;;25.53;21.10;;;6.90;99.90;;;;;;5115547;28;20188;-89
2022/01/22 13:52:06;;;;;;;24.47;20.20;;;6.80;99.90;;;;;;5118272;27;20236;-90
2022/01/22 13:54:36;;;;;;;28.73;20.53;;;6.80;99.90;;;;;;5118660;27;20207;-89
2022/01/22 13:57:08;;;;;;;25.40;20.83;;;6.90;99.90;;;;;;5118751;28;20192;-89
2022/01/22 13:59:42;;;;;;;27.33;21.10;;;6.90;99.90;;;;;;5119005;28;20659;-89
2022/01/22 14:03:07;;;;;;;27.57;22.07;;;6.80;99.90;;;;;;5119003;28;20211;-88
2022/01/22 14:05:36;;;;;;;24.33;20.23;;;6.90;99.90;;;;;;5124600;27;20279;-88
2022/01/22 14:08:07;;;;;;;28.43;22.00;;;6.80;99.90;;;;;;5128911;27;20547;-89
2022/01/22 14:10:47;;;;;;;29.07;20.87;;;6.90;99.90;;;;;;5125291;27;20220;-88
2022/01/22 14:13:21;;;;;;;26.53;19.83;;;6.90;99.90;;;;;;5131255;27;20192;-89
2022/01/22 14:15:54;;;;;;;26.50;20.03;;;7.00;99.90;;;;;;5138910;27;20228;-87
2022/01/22 14:18:27;;;;;;;29.30;21.30;;;6.90;99.90;;;;;;5138847;27;20192;-90
2022/01/22 14:20:55;;;;;;;28.40;19.40;;;6.80;99.90;;;;;;5138712;27;20211;-86
2022/01/22 14:23:42;;;;;;;29.73;19.57;;;6.70;99.90;;;;;;5137846;27;20215;-86
2022/01/22 14:26:15;;;;;;;26.10;20.50;;;6.80;99.90;;;;;;5138084;27;20203;-90
2022/01/22 14:28:49;;;;;;;28.00;20.63;;;7.00;99.90;;;;;;5138829;27;20215;-90
2022/01/22 14:31:28;;;;;;;24.73;18.93;;;6.90;99.90;;;;;;5138606;27;20231;-88
2022/01/22 14:34:00;;;;;;;24.23;19.63;;;7.10;99.90;;;;;;5138563;27;20220;-88
2022/01/22 14:36:30;;;;;;;25.00;19.87;;;7.10;99.90;;;;;;5137523;27;20265;-88
2022/01/22 14:39:17;;;;;;;29.87;20.77;;;7.00;99.90;;;;;;5138140;27;20211;-89
2022/01/22 14:44:42;;;;;;;27.63;21.27;;;6.80;99.90;;;;;;5137510;27;20187;-87